sensor_id;sensor_type;location;lat;lon;timestamp;pressure;altitude;pressure_sealevel;temperature;humidity
20368;BME280;10343;52.402;9.796;2022-09-12T00:00:06;101299.34;;;13.92;100.00
20368;BME280;10343;52.402;9.796;2022-09-12T00:02:37;101300.22;;;13.93;100.00
20368;BME280;10343;52.402;9.796;2022-09-12T00:05:06;101292.28;;;13.91;100.00
20368;BME280;10343;52.402;9.796;2022-09-12T00:07:34;101296.72;;;13.91;100.00
20368;BME280;10343;52.402;9.796;2022-09-12T00:10:03;101294.09;;;13.89;100.00
20368;BME280;10343;52.402;9.796;2022-09-12T00:12:31;101289.72;;;13.87;100.00
20368;BME280;10343;52.402;9.796;2022-09-12T00:14:59;101285.31;;;13.86;100.00
20368;BME280;10343;52.402;9.796;2022-09-12T00:17:27;101288.06;;;13.83;100.00
20368;BME280;10343;52.402;9.796;2022-09-12T00:19:54;101289.03;;;13.80;100.00
20368;BME280;10343;52.402;9.796;2022-09-12T00:22:24;101285.53;;;13.78;100.00
20368;BME280;10343;52.402;9.796;2022-09-12T00:24:51;101279.38;;;13.76;100.00
20368;BME280;10343;52.402;9.796;2022-09-12T00:27:19;101289.13;;;13.75;100.00
20368;BME280;10343;52.402;9.796;2022-09-12T00:29:47;101288.31;;;13.73;100.00
20368;BME280;10343;52.402;9.796;2022-09-12T00:32:15;101284.03;;;13.68;100.00
20368;BME280;10343;52.402;9.796;2022-09-12T00:34:43;101285.00;;;13.65;100.00
20368;BME280;10343;52.402;9.796;2022-09-12T00:37:10;101282.38;;;13.64;100.00
20368;BME280;10343;52.402;9.796;2022-09-12T00:39:40;101287.72;;;13.62;100.00
20368;BME280;10343;52.402;9.796;2022-09-12T00:42:08;101296.69;;;13.58;100.00
20368;BME280;10343;52.402;9.796;2022-09-12T00:44:45;101285.22;;;13.56;100.00
20368;BME280;10343;52.402;9.796;2022-09-12T00:47:18;101281.75;;;13.52;100.00
20368;BME280;10343;52.402;9.796;2022-09-12T00:49:50;101285.38;;;13.50;100.00
20368;BME280;10343;52.402;9.796;2022-09-12T00:52:22;101280.97;;;13.49;100.00
20368;BME280;10343;52.402;9.796;2022-09-12T00:54:56;101275.66;;;13.49;100.00
20368;BME280;10343;52.402;9.796;2022-09-12T00:57:29;101277.47;;;13.47;100.00
20368;BME280;10343;52.402;9.796;2022-09-12T01:00:03;101273.03;;;13.46;100.00
20368;BME280;10343;52.402;9.796;2022-09-12T01:02:34;101269.47;;;13.47;100.00
20368;BME280;10343;52.402;9.796;2022-09-12T01:05:04;101268.66;;;13.45;100.00
20368;BME280;10343;52.402;9.796;2022-09-12T01:07:34;101274.03;;;13.43;100.00
20368;BME280;10343;52.402;9.796;2022-09-12T01:10:08;101264.31;;;13.40;100.00
20368;BME280;10343;52.402;9.796;2022-09-12T01:12:38;101267.03;;;13.37;100.00
20368;BME280;10343;52.402;9.796;2022-09-12T01:15:07;101267.94;;;13.38;100.00
20368;BME280;10343;52.402;9.796;2022-09-12T01:17:41;101260.88;;;13.35;100.00
20368;BME280;10343;52.402;9.796;2022-09-12T01:20:29;101264.56;;;13.30;100.00
20368;BME280;10343;52.402;9.796;2022-09-12T01:23:19;101266.31;;;13.29;100.00
20368;BME280;10343;52.402;9.796;2022-09-12T01:26:07;101260.19;;;13.27;100.00
20368;BME280;10343;52.402;9.796;2022-09-12T01:28:53;101259.25;;;13.28;100.00
20368;BME280;10343;52.402;9.796;2022-09-12T01:31:32;101261.06;;;13.26;100.00
20368;BME280;10343;52.402;9.796;2022-09-12T01:34:11;101262.84;;;13.27;100.00
20368;BME280;10343;52.402;9.796;2022-09-12T01:36:49;101254.00;;;13.25;100.00
20368;BME280;10343;52.402;9.796;2022-09-12T01:39:28;101252.28;;;13.24;100.00
20368;BME280;10343;52.402;9.796;2022-09-12T01:42:06;101259.41;;;13.22;100.00
20368;BME280;10343;52.402;9.796;2022-09-12T01:44:40;101255.91;;;13.20;100.00
20368;BME280;10343;52.402;9.796;2022-09-12T01:47:18;101251.50;;;13.19;100.00
20368;BME280;10343;52.402;9.796;2022-09-12T01:49:51;101248.91;;;13.16;100.00
20368;BME280;10343;52.402;9.796;2022-09-12T01:52:27;101246.31;;;13.14;100.00
20368;BME280;10343;52.402;9.796;2022-09-12T01:55:01;101255.19;;;13.13;100.00
20368;BME280;10343;52.402;9.796;2022-09-12T01:57:38;101247.25;;;13.12;100.00
20368;BME280;10343;52.402;9.796;2022-09-12T02:00:09;101250.81;;;13.11;100.00
20368;BME280;10343;52.402;9.796;2022-09-12T02:02:45;101238.41;;;13.09;100.00
20368;BME280;10343;52.402;9.796;2022-09-12T02:05:18;101249.06;;;13.09;100.00
20368;BME280;10343;52.402;9.796;2022-09-12T02:07:50;101234.06;;;13.05;100.00
20368;BME280;10343;52.402;9.796;2022-09-12T02:10:21;101236.72;;;13.05;100.00
20368;BME280;10343;52.402;9.796;2022-09-12T02:13:00;101231.56;;;12.99;100.00
20368;BME280;10343;52.402;9.796;2022-09-12T02:15:33;101228.91;;;12.99;100.00
20368;BME280;10343;52.402;9.796;2022-09-12T02:18:05;101224.47;;;13.00;100.00
20368;BME280;10343;52.402;9.796;2022-09-12T02:20:35;101228.06;;;12.97;100.00
20368;BME280;10343;52.402;9.796;2022-09-12T02:23:18;101222.78;;;12.96;100.00
20368;BME280;10343;52.402;9.796;2022-09-12T02:25:50;101225.53;;;12.93;100.00
20368;BME280;10343;52.402;9.796;2022-09-12T02:28:22;101230.00;;;12.92;100.00
20368;BME280;10343;52.402;9.796;2022-09-12T02:30:56;101231.78;;;12.90;100.00
20368;BME280;10343;52.402;9.796;2022-09-12T02:33:31;101230.13;;;12.86;100.00
20368;BME280;10343;52.402;9.796;2022-09-12T02:36:10;101230.25;;;12.81;100.00
20368;BME280;10343;52.402;9.796;2022-09-12T02:38:42;101226.69;;;12.81;100.00
20368;BME280;10343;52.402;9.796;2022-09-12T02:41:13;101223.19;;;12.79;100.00
20368;BME280;10343;52.402;9.796;2022-09-12T02:43:42;101216.97;;;12.78;100.00
20368;BME280;10343;52.402;9.796;2022-09-12T02:46:14;101223.25;;;12.77;100.00
20368;BME280;10343;52.402;9.796;2022-09-12T02:48:44;101221.44;;;12.78;100.00
20368;BME280;10343;52.402;9.796;2022-09-12T02:51:12;101218.78;;;12.78;100.00
20368;BME280;10343;52.402;9.796;2022-09-12T02:53:40;101216.13;;;12.78;100.00
20368;BME280;10343;52.402;9.796;2022-09-12T02:56:13;101218.81;;;12.76;100.00
20368;BME280;10343;52.402;9.796;2022-09-12T02:58:44;101210.00;;;12.74;100.00
20368;BME280;10343;52.402;9.796;2022-09-12T03:01:22;101207.53;;;12.66;100.00
20368;BME280;10343;52.402;9.796;2022-09-12T03:04:14;101205.69;;;12.68;100.00
20368;BME280;10343;52.402;9.796;2022-09-12T03:06:50;101211.94;;;12.66;100.00
20368;BME280;10343;52.402;9.796;2022-09-12T03:09:29;101208.44;;;12.65;100.00
20368;BME280;10343;52.402;9.796;2022-09-12T03:12:12;101210.22;;;12.65;100.00
20368;BME280;10343;52.402;9.796;2022-09-12T03:15:01;101204.94;;;12.63;100.00
20368;BME280;10343;52.402;9.796;2022-09-12T03:17:43;101197.94;;;12.59;100.00
20368;BME280;10343;52.402;9.796;2022-09-12T03:20:21;101198.84;;;12.58;100.00
20368;BME280;10343;52.402;9.796;2022-09-12T03:22:57;101205.06;;;12.57;100.00
20368;BME280;10343;52.402;9.796;2022-09-12T03:25:28;101207.72;;;12.57;100.00
20368;BME280;10343;52.402;9.796;2022-09-12T03:28:01;101207.81;;;12.54;100.00
20368;BME280;10343;52.402;9.796;2022-09-12T03:30:37;101206.06;;;12.53;100.00
20368;BME280;10343;52.402;9.796;2022-09-12T03:33:05;101205.19;;;12.52;100.00
20368;BME280;10343;52.402;9.796;2022-09-12T03:35:34;101211.38;;;12.53;100.00
20368;BME280;10343;52.402;9.796;2022-09-12T03:38:02;101210.56;;;12.51;100.00
20368;BME280;10343;52.402;9.796;2022-09-12T03:40:30;101208.78;;;12.50;100.00
20368;BME280;10343;52.402;9.796;2022-09-12T03:42:58;101206.13;;;12.50;100.00
20368;BME280;10343;52.402;9.796;2022-09-12T03:45:26;101210.59;;;12.49;100.00
20368;BME280;10343;52.402;9.796;2022-09-12T03:47:54;101213.25;;;12.48;100.00
20368;BME280;10343;52.402;9.796;2022-09-12T03:50:22;101215.09;;;12.46;100.00
20368;BME280;10343;52.402;9.796;2022-09-12T03:52:51;101209.78;;;12.46;100.00
20368;BME280;10343;52.402;9.796;2022-09-12T03:55:19;101216.91;;;12.44;100.00
20368;BME280;10343;52.402;9.796;2022-09-12T03:57:47;101204.53;;;12.43;100.00
20368;BME280;10343;52.402;9.796;2022-09-12T04:00:14;101208.91;;;12.44;100.00
20368;BME280;10343;52.402;9.796;2022-09-12T04:02:45;101199.22;;;12.43;100.00
20368;BME280;10343;52.402;9.796;2022-09-12T04:05:13;101197.44;;;12.42;100.00
20368;BME280;10343;52.402;9.796;2022-09-12T04:07:41;101205.44;;;12.42;100.00
20368;BME280;10343;52.402;9.796;2022-09-12T04:10:10;101209.00;;;12.40;100.00
20368;BME280;10343;52.402;9.796;2022-09-12T04:12:41;101204.56;;;12.39;100.00
20368;BME280;10343;52.402;9.796;2022-09-12T04:15:09;101206.41;;;12.37;100.00
20368;BME280;10343;52.402;9.796;2022-09-12T04:17:37;101206.50;;;12.34;100.00
20368;BME280;10343;52.402;9.796;2022-09-12T04:20:06;101205.56;;;12.35;100.00
20368;BME280;10343;52.402;9.796;2022-09-12T04:22:33;101209.16;;;12.34;100.00
20368;BME280;10343;52.402;9.796;2022-09-12T04:25:01;101211.81;;;12.34;100.00
20368;BME280;10343;52.402;9.796;2022-09-12T04:27:30;101217.16;;;12.33;100.00
20368;BME280;10343;52.402;9.796;2022-09-12T04:29:59;101215.38;;;12.33;100.00
20368;BME280;10343;52.402;9.796;2022-09-12T04:32:28;101216.25;;;12.32;100.00
20368;BME280;10343;52.402;9.796;2022-09-12T04:34:57;101219.84;;;12.30;100.00
20368;BME280;10343;52.402;9.796;2022-09-12T04:37:25;101217.16;;;12.31;100.00
20368;BME280;10343;52.402;9.796;2022-09-12T04:39:53;101214.53;;;12.30;100.00
20368;BME280;10343;52.402;9.796;2022-09-12T04:42:23;101216.34;;;12.29;100.00
20368;BME280;10343;52.402;9.796;2022-09-12T04:44:52;101216.31;;;12.31;100.00
20368;BME280;10343;52.402;9.796;2022-09-12T04:47:20;101212.75;;;12.32;100.00
20368;BME280;10343;52.402;9.796;2022-09-12T04:49:48;101208.31;;;12.31;100.00
20368;BME280;10343;52.402;9.796;2022-09-12T04:52:16;101211.84;;;12.31;100.00
20368;BME280;10343;52.402;9.796;2022-09-12T04:54:44;101216.25;;;12.32;100.00
20368;BME280;10343;52.402;9.796;2022-09-12T04:57:12;101216.25;;;12.32;100.00
20368;BME280;10343;52.402;9.796;2022-09-12T04:59:40;101213.59;;;12.32;100.00
20368;BME280;10343;52.402;9.796;2022-09-12T05:02:09;101213.59;;;12.32;100.00
20368;BME280;10343;52.402;9.796;2022-09-12T05:04:37;101212.66;;;12.35;100.00
20368;BME280;10343;52.402;9.796;2022-09-12T05:07:05;101220.59;;;12.36;100.00
20368;BME280;10343;52.402;9.796;2022-09-12T05:09:33;101224.13;;;12.38;100.00
20368;BME280;10343;52.402;9.796;2022-09-12T05:12:01;101225.84;;;12.39;100.00
20368;BME280;10343;52.402;9.796;2022-09-12T05:14:31;101225.84;;;12.41;100.00
20368;BME280;10343;52.402;9.796;2022-09-12T05:17:00;101222.22;;;12.44;100.00
20368;BME280;10343;52.402;9.796;2022-09-12T05:19:30;101227.53;;;12.44;100.00
20368;BME280;10343;52.402;9.796;2022-09-12T05:21:58;101226.59;;;12.46;100.00
20368;BME280;10343;52.402;9.796;2022-09-12T05:24:26;101232.72;;;12.50;100.00
20368;BME280;10343;52.402;9.796;2022-09-12T05:26:54;101238.84;;;12.53;100.00
20368;BME280;10343;52.402;9.796;2022-09-12T05:29:22;101235.22;;;12.56;100.00
20368;BME280;10343;52.402;9.796;2022-09-12T05:31:50;101230.78;;;12.58;100.00
20368;BME280;10343;52.402;9.796;2022-09-12T05:34:19;101236.00;;;12.61;100.00
20368;BME280;10343;52.402;9.796;2022-09-12T05:36:48;101237.69;;;12.65;100.00
20368;BME280;10343;52.402;9.796;2022-09-12T05:39:16;101237.63;;;12.68;100.00
20368;BME280;10343;52.402;9.796;2022-09-12T05:41:44;101233.97;;;12.72;100.00
20368;BME280;10343;52.402;9.796;2022-09-12T05:44:13;101228.59;;;12.76;100.00
20368;BME280;10343;52.402;9.796;2022-09-12T05:46:43;101226.75;;;12.78;100.00
20368;BME280;10343;52.402;9.796;2022-09-12T05:49:12;101225.78;;;12.82;100.00
20368;BME280;10343;52.402;9.796;2022-09-12T05:51:42;101228.38;;;12.85;100.00
20368;BME280;10343;52.402;9.796;2022-09-12T05:54:13;101238.88;;;12.91;100.00
20368;BME280;10343;52.402;9.796;2022-09-12T05:56:42;101238.72;;;12.97;100.00
20368;BME280;10343;52.402;9.796;2022-09-12T05:59:12;101232.34;;;13.03;100.00
20368;BME280;10343;52.402;9.796;2022-09-12T06:01:41;101234.94;;;13.07;100.00
20368;BME280;10343;52.402;9.796;2022-09-12T06:04:09;101227.72;;;13.13;100.00
20368;BME280;10343;52.402;9.796;2022-09-12T06:06:39;101235.66;;;13.14;100.00
20368;BME280;10343;52.402;9.796;2022-09-12T06:09:09;101236.34;;;13.21;100.00
20368;BME280;10343;52.402;9.796;2022-09-12T06:11:39;101233.59;;;13.25;100.00
20368;BME280;10343;52.402;9.796;2022-09-12T06:14:07;101233.50;;;13.29;100.00
20368;BME280;10343;52.402;9.796;2022-09-12T06:16:37;101237.78;;;13.34;100.00
20368;BME280;10343;52.402;9.796;2022-09-12T06:19:06;101236.81;;;13.38;100.00
20368;BME280;10343;52.402;9.796;2022-09-12T06:21:36;101226.06;;;13.43;100.00
20368;BME280;10343;52.402;9.796;2022-09-12T06:24:05;101227.59;;;13.52;100.00
20368;BME280;10343;52.402;9.796;2022-09-12T06:26:33;101230.19;;;13.55;100.00
20368;BME280;10343;52.402;9.796;2022-09-12T06:29:03;101223.84;;;13.59;100.00
20368;BME280;10343;52.402;9.796;2022-09-12T06:31:32;101223.72;;;13.65;100.00
20368;BME280;10343;52.402;9.796;2022-09-12T06:34:02;101228.84;;;13.71;100.00
20368;BME280;10343;52.402;9.796;2022-09-12T06:36:32;101227.81;;;13.77;100.00
20368;BME280;10343;52.402;9.796;2022-09-12T06:39:03;101223.19;;;13.84;100.00
20368;BME280;10343;52.402;9.796;2022-09-12T06:41:32;101227.50;;;13.88;100.00
20368;BME280;10343;52.402;9.796;2022-09-12T06:44:00;101213.19;;;13.92;100.00
20368;BME280;10343;52.402;9.796;2022-09-12T06:46:30;101212.25;;;13.93;100.00
20368;BME280;10343;52.402;9.796;2022-09-12T06:48:59;101208.44;;;14.02;100.00
20368;BME280;10343;52.402;9.796;2022-09-12T06:51:27;101207.31;;;14.10;100.00
20368;BME280;10343;52.402;9.796;2022-09-12T06:53:56;101202.66;;;14.17;100.00
20368;BME280;10343;52.402;9.796;2022-09-12T06:56:27;101213.09;;;14.25;100.00
20368;BME280;10343;52.402;9.796;2022-09-12T06:58:56;101206.66;;;14.32;100.00
20368;BME280;10343;52.402;9.796;2022-09-12T07:01:26;101212.63;;;14.40;100.00
20368;BME280;10343;52.402;9.796;2022-09-12T07:03:57;101210.59;;;14.49;100.00
20368;BME280;10343;52.402;9.796;2022-09-12T07:06:27;101211.22;;;14.57;100.00
20368;BME280;10343;52.402;9.796;2022-09-12T07:08:57;101209.22;;;14.65;100.00
20368;BME280;10343;52.402;9.796;2022-09-12T07:11:28;101212.63;;;14.70;100.00
20368;BME280;10343;52.402;9.796;2022-09-12T07:13:59;101216.03;;;14.75;100.00
20368;BME280;10343;52.402;9.796;2022-09-12T07:16:28;101220.25;;;14.83;100.00
20368;BME280;10343;52.402;9.796;2022-09-12T07:18:59;101220.09;;;14.87;100.00
20368;BME280;10343;52.402;9.796;2022-09-12T07:21:28;101222.50;;;14.95;100.00
20368;BME280;10343;52.402;9.796;2022-09-12T07:23:56;101212.63;;;14.99;100.00
20368;BME280;10343;52.402;9.796;2022-09-12T07:26:27;101215.94;;;15.05;100.00
20368;BME280;10343;52.402;9.796;2022-09-12T07:28:57;101217.56;;;15.09;100.00
20368;BME280;10343;52.402;9.796;2022-09-12T07:31:45;101212.03;;;15.16;100.00
20368;BME280;10343;52.402;9.796;2022-09-12T07:34:14;101218.09;;;15.21;100.00
20368;BME280;10343;52.402;9.796;2022-09-12T07:36:43;101215.16;;;15.28;100.00
20368;BME280;10343;52.402;9.796;2022-09-12T07:39:10;101213.97;;;15.37;100.00
20368;BME280;10343;52.402;9.796;2022-09-12T07:41:38;101207.50;;;15.44;100.00
20368;BME280;10343;52.402;9.796;2022-09-12T07:44:06;101213.44;;;15.53;100.00
20368;BME280;10343;52.402;9.796;2022-09-12T07:46:34;101214.03;;;15.61;100.00
20368;BME280;10343;52.402;9.796;2022-09-12T07:49:02;101216.41;;;15.70;100.00
20368;BME280;10343;52.402;9.796;2022-09-12T07:51:31;101217.97;;;15.76;100.00
20368;BME280;10343;52.402;9.796;2022-09-12T07:53:59;101215.97;;;15.83;100.00
20368;BME280;10343;52.402;9.796;2022-09-12T07:56:28;101220.16;;;15.90;100.00
20368;BME280;10343;52.402;9.796;2022-09-12T07:59:01;101211.91;;;15.96;100.00
20368;BME280;10343;52.402;9.796;2022-09-12T08:01:29;101207.06;;;16.06;100.00
20368;BME280;10343;52.402;9.796;2022-09-12T08:03:58;101218.28;;;16.16;100.00
20368;BME280;10343;52.402;9.796;2022-09-12T08:06:28;101219.69;;;16.26;100.00
20368;BME280;10343;52.402;9.796;2022-09-12T08:08:59;101228.31;;;16.34;100.00
20368;BME280;10343;52.402;9.796;2022-09-12T08:11:28;101222.59;;;16.43;100.00
20368;BME280;10343;52.402;9.796;2022-09-12T08:13:56;101223.22;;;16.50;100.00
20368;BME280;10343;52.402;9.796;2022-09-12T08:16:26;101218.44;;;16.58;100.00
20368;BME280;10343;52.402;9.796;2022-09-12T08:18:54;101218.97;;;16.68;99.02
20368;BME280;10343;52.402;9.796;2022-09-12T08:21:23;101215.16;;;16.74;98.14
20368;BME280;10343;52.402;9.796;2022-09-12T08:23:53;101216.56;;;16.83;95.23
20368;BME280;10343;52.402;9.796;2022-09-12T08:26:23;101218.09;;;16.90;93.41
20368;BME280;10343;52.402;9.796;2022-09-12T08:28:51;101218.41;;;17.04;93.88
20368;BME280;10343;52.402;9.796;2022-09-12T08:31:21;101212.66;;;17.13;93.16
20368;BME280;10343;52.402;9.796;2022-09-12T08:33:50;101213.25;;;17.20;91.73
20368;BME280;10343;52.402;9.796;2022-09-12T08:36:20;101214.56;;;17.32;91.41
20368;BME280;10343;52.402;9.796;2022-09-12T08:38:49;101209.59;;;17.43;90.17
20368;BME280;10343;52.402;9.796;2022-09-12T08:41:27;101210.88;;;17.55;89.71
20368;BME280;10343;52.402;9.796;2022-09-12T08:44:17;101203.16;;;17.68;89.46
20368;BME280;10343;52.402;9.796;2022-09-12T08:47:05;101202.59;;;17.80;88.47
20368;BME280;10343;52.402;9.796;2022-09-12T08:49:38;101205.56;;;17.95;87.18
20368;BME280;10343;52.402;9.796;2022-09-12T08:52:12;101206.88;;;18.05;86.37
20368;BME280;10343;52.402;9.796;2022-09-12T08:54:42;101202.09;;;18.12;84.88
20368;BME280;10343;52.402;9.796;2022-09-12T08:57:14;101204.56;;;18.16;84.07
20368;BME280;10343;52.402;9.796;2022-09-12T08:59:42;101206.59;;;18.30;82.07
20368;BME280;10343;52.402;9.796;2022-09-12T09:02:30;101203.13;;;18.47;82.27
20368;BME280;10343;52.402;9.796;2022-09-12T09:05:03;101197.94;;;18.62;80.82
20368;BME280;10343;52.402;9.796;2022-09-12T09:08:07;101199.84;;;18.77;78.60
20368;BME280;10343;52.402;9.796;2022-09-12T09:10:46;101190.44;;;18.88;78.32
20368;BME280;10343;52.402;9.796;2022-09-12T09:13:26;101190.38;;;19.07;77.38
20368;BME280;10343;52.402;9.796;2022-09-12T09:16:15;101195.06;;;19.21;75.89
20368;BME280;10343;52.402;9.796;2022-09-12T09:18:49;101187.94;;;19.37;74.35
20368;BME280;10343;52.402;9.796;2022-09-12T09:21:21;101187.38;;;19.48;72.67
20368;BME280;10343;52.402;9.796;2022-09-12T09:23:55;101178.44;;;19.47;70.38
20368;BME280;10343;52.402;9.796;2022-09-12T09:26:28;101172.41;;;19.60;73.25
20368;BME280;10343;52.402;9.796;2022-09-12T09:29:03;101164.41;;;19.58;70.97
20368;BME280;10343;52.402;9.796;2022-09-12T09:31:36;101172.63;;;19.73;70.51
20368;BME280;10343;52.402;9.796;2022-09-12T09:34:13;101164.44;;;19.92;68.88
20368;BME280;10343;52.402;9.796;2022-09-12T09:36:48;101162.94;;;20.19;67.75
20368;BME280;10343;52.402;9.796;2022-09-12T09:39:28;101155.34;;;20.42;68.84
20368;BME280;10343;52.402;9.796;2022-09-12T09:42:17;101153.09;;;20.50;66.77
20368;BME280;10343;52.402;9.796;2022-09-12T09:44:48;101154.22;;;20.46;66.34
20368;BME280;10343;52.402;9.796;2022-09-12T09:47:19;101156.25;;;20.43;66.48
20368;BME280;10343;52.402;9.796;2022-09-12T09:49:47;101160.88;;;20.55;67.61
20368;BME280;10343;52.402;9.796;2022-09-12T09:52:16;101151.25;;;20.67;66.27
20368;BME280;10343;52.402;9.796;2022-09-12T09:54:51;101148.31;;;20.72;65.36
20368;BME280;10343;52.402;9.796;2022-09-12T09:57:43;101160.19;;;20.83;65.65
20368;BME280;10343;52.402;9.796;2022-09-12T10:00:28;101151.03;;;21.02;63.51
20368;BME280;10343;52.402;9.796;2022-09-12T10:03:03;101143.94;;;21.15;62.49
20368;BME280;10343;52.402;9.796;2022-09-12T10:05:44;101135.88;;;21.30;61.90
20368;BME280;10343;52.402;9.796;2022-09-12T10:08:19;101133.59;;;21.38;60.41
20368;BME280;10343;52.402;9.796;2022-09-12T10:10:59;101132.66;;;21.53;58.98
20368;BME280;10343;52.402;9.796;2022-09-12T10:13:33;101130.84;;;21.68;58.92
20368;BME280;10343;52.402;9.796;2022-09-12T10:16:05;101133.44;;;21.70;59.27
20368;BME280;10343;52.402;9.796;2022-09-12T10:18:36;101131.50;;;21.72;57.05
20368;BME280;10343;52.402;9.796;2022-09-12T10:21:20;101138.44;;;21.76;57.56
20368;BME280;10343;52.402;9.796;2022-09-12T10:23:52;101136.03;;;21.71;57.26
20368;BME280;10343;52.402;9.796;2022-09-12T10:26:31;101127.53;;;21.63;57.98
20368;BME280;10343;52.402;9.796;2022-09-12T10:29:04;101122.06;;;21.79;58.94
20368;BME280;10343;52.402;9.796;2022-09-12T10:31:43;101125.31;;;21.99;57.30
20368;BME280;10343;52.402;9.796;2022-09-12T10:34:24;101124.25;;;22.01;55.69
20368;BME280;10343;52.402;9.796;2022-09-12T10:36:58;101124.28;;;22.29;56.09
20368;BME280;10343;52.402;9.796;2022-09-12T10:39:27;101125.00;;;22.45;56.01
20368;BME280;10343;52.402;9.796;2022-09-12T10:41:56;101113.16;;;22.48;53.31
20368;BME280;10343;52.402;9.796;2022-09-12T10:44:28;101122.16;;;22.34;54.69
20368;BME280;10343;52.402;9.796;2022-09-12T10:47:18;101114.41;;;22.42;54.79
20368;BME280;10343;52.402;9.796;2022-09-12T10:49:46;101114.66;;;22.52;55.64
20368;BME280;10343;52.402;9.796;2022-09-12T10:52:21;101113.25;;;22.46;55.11
20368;BME280;10343;52.402;9.796;2022-09-12T10:54:49;101108.41;;;22.51;54.36
20368;BME280;10343;52.402;9.796;2022-09-12T10:57:36;101101.13;;;22.66;54.25
20368;BME280;10343;52.402;9.796;2022-09-12T11:00:13;101103.09;;;22.77;52.93
20368;BME280;10343;52.402;9.796;2022-09-12T11:02:58;101097.03;;;22.86;52.12
20368;BME280;10343;52.402;9.796;2022-09-12T11:05:38;101099.41;;;22.78;52.01
20368;BME280;10343;52.402;9.796;2022-09-12T11:11:05;101093.66;;;22.70;52.55
20368;BME280;10343;52.402;9.796;2022-09-12T11:13:49;101091.84;;;22.83;52.86
20368;BME280;10343;52.402;9.796;2022-09-12T11:16:25;101096.75;;;22.91;52.94
20368;BME280;10343;52.402;9.796;2022-09-12T11:19:19;101088.50;;;22.80;53.04
20368;BME280;10343;52.402;9.796;2022-09-12T11:22:06;101087.97;;;22.87;51.35
20368;BME280;10343;52.402;9.796;2022-09-12T11:24:57;101076.84;;;22.92;50.91
20368;BME280;10343;52.402;9.796;2022-09-12T11:27:38;101069.16;;;22.99;51.59
20368;BME280;10343;52.402;9.796;2022-09-12T11:30:13;101074.91;;;23.07;51.94
20368;BME280;10343;52.402;9.796;2022-09-12T11:35:33;101075.13;;;23.04;50.67
20368;BME280;10343;52.402;9.796;2022-09-12T11:38:29;101066.56;;;22.97;49.78
20368;BME280;10343;52.402;9.796;2022-09-12T11:41:04;101062.03;;;23.11;50.65
20368;BME280;10343;52.402;9.796;2022-09-12T11:43:37;101065.09;;;23.19;49.20
20368;BME280;10343;52.402;9.796;2022-09-12T11:46:15;101064.66;;;23.12;48.73
20368;BME280;10343;52.402;9.796;2022-09-12T11:48:50;101065.03;;;22.93;48.04
20368;BME280;10343;52.402;9.796;2022-09-12T11:51:26;101062.56;;;23.03;48.60
20368;BME280;10343;52.402;9.796;2022-09-12T11:54:03;101055.97;;;23.07;48.34
20368;BME280;10343;52.402;9.796;2022-09-12T11:56:41;101058.19;;;23.15;48.79
20368;BME280;10343;52.402;9.796;2022-09-12T11:59:17;101061.75;;;23.28;48.62
20368;BME280;10343;52.402;9.796;2022-09-12T12:01:50;101063.16;;;23.34;46.96
20368;BME280;10343;52.402;9.796;2022-09-12T12:04:33;101059.69;;;23.32;47.32
20368;BME280;10343;52.402;9.796;2022-09-12T12:07:06;101050.16;;;23.39;47.58
20368;BME280;10343;52.402;9.796;2022-09-12T12:09:35;101052.97;;;23.50;46.72
20368;BME280;10343;52.402;9.796;2022-09-12T12:12:06;101046.91;;;23.60;46.27
20368;BME280;10343;52.402;9.796;2022-09-12T12:14:42;101048.59;;;23.73;46.59
20368;BME280;10343;52.402;9.796;2022-09-12T12:17:14;101056.22;;;23.55;45.00
20368;BME280;10343;52.402;9.796;2022-09-12T12:19:44;101045.59;;;23.52;46.35
20368;BME280;10343;52.402;9.796;2022-09-12T12:22:21;101039.09;;;23.68;46.47
20368;BME280;10343;52.402;9.796;2022-09-12T12:25:07;101047.72;;;23.73;45.88
20368;BME280;10343;52.402;9.796;2022-09-12T12:27:57;101042.34;;;23.60;45.55
20368;BME280;10343;52.402;9.796;2022-09-12T12:30:58;101046.34;;;23.54;45.63
20368;BME280;10343;52.402;9.796;2022-09-12T12:34:02;101046.78;;;23.48;45.42
20368;BME280;10343;52.402;9.796;2022-09-12T12:36:36;101046.91;;;23.34;45.99
20368;BME280;10343;52.402;9.796;2022-09-12T12:48:53;101031.13;;;23.28;45.13
20368;BME280;10343;52.402;9.796;2022-09-12T12:51:47;101033.41;;;23.34;45.68
20368;BME280;10343;52.402;9.796;2022-09-12T12:54:28;101023.53;;;23.33;43.86
20368;BME280;10343;52.402;9.796;2022-09-12T12:57:04;101016.19;;;23.35;45.17
20368;BME280;10343;52.402;9.796;2022-09-12T12:59:33;101015.56;;;23.18;44.89
20368;BME280;10343;52.402;9.796;2022-09-12T13:02:02;101006.34;;;23.34;45.50
20368;BME280;10343;52.402;9.796;2022-09-12T13:04:32;101003.19;;;23.40;45.33
20368;BME280;10343;52.402;9.796;2022-09-12T13:07:03;101004.69;;;23.44;46.38
20368;BME280;10343;52.402;9.796;2022-09-12T13:09:37;100995.59;;;23.45;46.80
20368;BME280;10343;52.402;9.796;2022-09-12T13:12:08;100998.63;;;23.53;46.88
20368;BME280;10343;52.402;9.796;2022-09-12T13:14:57;100995.06;;;23.40;47.56
20368;BME280;10343;52.402;9.796;2022-09-12T13:17:47;100990.13;;;23.34;48.11
20368;BME280;10343;52.402;9.796;2022-09-12T13:20:21;100998.47;;;23.31;47.30
20368;BME280;10343;52.402;9.796;2022-09-12T13:22:56;100992.06;;;23.32;47.62
20368;BME280;10343;52.402;9.796;2022-09-12T13:25:29;100987.75;;;23.16;47.18
20368;BME280;10343;52.402;9.796;2022-09-12T13:28:00;100982.53;;;22.87;48.38